Kenilworth, NJ (07033)

6:14 AM EST on February 08, 2016 (GMT -0500)
Kenilworth, N.J. | | Change Station
CLOSE
Current Station
Personal Weather Station
Location: Kenilworth, NJ
Elevation: 92 ft
Nearby Weather Stations
Active Advisory: Winter Weather Advisory

Elev 92 ft 40.67 °N, 74.30 °W | Updated 2 minutes ago

Overcast
Overcast
37.7 °F
Feels Like 35 °F
N
4.0
Wind Variable Wind from East
Gusts 8.0 mph

Today
High -- | Low -- °F
--% Chance of Precip.
Yesterday
High -- | Low -- °F
Precip. -- in
Pressure 29.78 in
Visibility 10.0 miles
Clouds Overcast 3100 ft
Windchill 35 °F
Dew Point 29 °F
Humidity 72%
Rainfall 0.00 in
Snow Depth Not available.
7:00 AM 5:22 PM
Waning Crescent, 0% visible
METAR KLDJ 081115Z AUTO 08009G15KT 10SM OVC031 04/M02 A2978 RMK AO2 T00351025
Pressure 29.78 in
Visibility 10.0 miles
Clouds Overcast 3100 ft
Windchill 35 °F
Dew Point 29 °F
Humidity 72%
Rainfall 0.00 in
Snow Depth Not available.
7:00 AM 5:22 PM
Waning Crescent, 0% visible
METAR KLDJ 081115Z AUTO 08009G15KT 10SM OVC031 04/M02 A2978 RMK AO2 T00351025

10-Day Weather Forecast

Almanac

Astronomy

Feb. 08, 2016 Rise Set
Actual Time
Civil Twilight
Nautical Twilight
Astronomical Twilight
Moon
Length of Visible Light
Length of Day
Tomorrow will be .
, % of the Moon is Illuminated

Today's Extremes

State Highs State Lows

Community

WunderPhotos

Upload Photos

1,891,420 photos uploaded!

WunderBlog® & News

Nearby

Air Quality

  Air Quality AQ Index Pollutant
Not available.

Snow Depth

Station Depth Elevation

Earthquake Activity

City Distance Mag. Time & Date
Minimum magnitude displayed is 2.5.

Coastal Water Temperatures

Place Temperature

Stations

Nearby Weather Stations

Station Location Temp. Windchill Dew Point Humidity Wind Precip. Elev Updated Type
                   

Watches & Warnings

Winter Weather Advisory
Issued: 4:31 AM EST Feb. 8, 2016 – National Weather Service

... Winter Weather Advisory in effect until 6 PM EST this
evening...

The National Weather Service in Upton has issued a Winter Weather
Advisory for snow... which is in effect until 6 PM EST this
evening.

* Locations... much of northeast New Jersey and the lower Hudson
Valley.

* Hazard types... accumulating snow.

* Accumulations... snow accumulation of 2 to 3 inches.

* Winds... northeast 10 to 15 mph with gusts up to 25 mph.

* Temperatures... in the lower 30s.

* Timing... snow will develop after daybreak... and continue into
the afternoon.

* Impacts... hazardous travel conditions due to snow covered
roads.

Precautionary/preparedness actions...

A Winter Weather Advisory for snow means that periods of snow
will cause travel difficulties. Be prepared for slippery roads and
limited visibilities... and use caution while driving.